Relevés horaires Matro (Suisse)


Relevés horaires à Matro - Vendredi 13 Août 2021
Heure UTC1 Température [°C] Vent [km/h] Hum. [%] Pres.4 [hPa] Visi. [Km] Nébu. [octa] Préc.5 [mm] Cond.
2m. Res. Ros. Dir.2 Vit. Moy. Raf.3
23:00 15.9 15.6 6.4 SE 11.1 -- 14.8 53 850(-0.3/3h) -- -- -- --
22:00 16.1 15.8 8.7 SE 11.1 -- 16.7 61 850(0.2/3h) -- -- -- --
21:00 16.1 15.6 7.8 SE 13.0 -- 22.2 58 850(0.4/3h) -- -- -- --
20:00 16.2 15.7 6.6 SE 13.0 -- 16.7 53 850(0.4/3h) -- -- -- --
19:00 16.4 15.8 7.4 SE 14.8 -- 22.2 55 850(0.0/3h) -- -- -- --
18:00 16.4 15.7 7.3 SSE 16.7 -- 22.2 55 850(-0.3/3h) -- -- -- --
17:00 16.9 16.4 9.3 SSE 14.8 -- 22.2 61 850(-0.3/3h) -- -- -- --
16:00 17.6 17.6 8.6 SE 9.3 -- 16.7 56 850(-0.4/3h) -- -- -- --
15:00 17.1 17.1 8.0 SSE 9.3 -- 20.4 55 850(-0.3/3h) -- -- -- --
14:00 17.5 17.5 8.6 SSE 11.1 -- 20.4 56 850(-0.1/3h) -- -- -- --
13:00 17.0 17.0 8.2 ONO 5.6 -- 20.4 56 850(0.0/3h) -- -- -- --
12:00 18.5 18.5 8.6 S 9.3 -- 24.1 52 850(0.2/3h) -- -- -- --
11:00 18.2 18.2 6.7 SO 7.4 -- 16.7 47 850(0.7/3h) -- -- -- --
10:00 16.5 16.5 5.2 S 7.4 -- 13.0 47 850(1.1/3h) -- -- -- --
09:00 17.9 17.9 8.4 SSE 1.9 -- 24.1 54 850(1.2/3h) -- -- -- --
08:00 16.3 16.2 4.4 NNO 9.3 -- 22.2 45 850(0.9/3h) -- -- -- --
07:00 15.5 14.7 4.0 NNO 14.8 -- 24.1 46 850(0.9/3h) -- -- -- --
06:00 15.3 13.9 3.3 NNO 22.2 -- 29.6 45 850(0.7/3h) -- -- -- --
05:00 14.8 13.5 4.8 NNO 18.5 -- 24.1 51 850(0.3/3h) -- -- -- --
04:00 14.4 13.2 6.4 NNO 16.7 -- 24.1 59 850(-0.5/3h) -- -- -- --
03:00 14.1 12.7 8.1 NO 18.5 -- 29.6 67 850(-0.6/3h) -- -- -- --
02:00 13.4 11.5 9.3 NNO 22.2 -- 25.9 76 850(-0.4/3h) -- -- -- --
01:00 13.9 13.4 8.6 SO 9.3 -- 13.0 70 850(-0.2/3h) -- -- -- --
00:00 14.6 14.6 7.9 SSO 5.6 -- 24.1 64 850(-0.2/3h) -- -- -- --

1 Coordinated Universal Time. Actuellement il est 13:00 locale et 11:00 UTC.

2 Le vent souffle depuis la direction indiquée vers la direction oposée.

3 Les rafales max. sont disponible 40 min après l'heure du relevé.

4 Pour les stations d'altitude (plus de 600m) le géopotentiel du niveau le plus proche de la pression obligatoire est indiqué.

5 Les stations disposant d'un diffuseur peuvent indiquer "trace". Cela signifie que des précipitations ont touchés le sol mais que la quantité est inférieure à 0.1 mm.

Copyright

Les données affichées sur cette page sont la propriété exclusive de Météo Suisse.

Récapitulatif de la journée
Température [°C] Vent [km/h] Ensoleillement4 [h] Precipitations totale5 [mm] Pression [Hpa]
Min1 Max.2 Moy.3 Max. Min Max.
13.4 18.8 0 29.6 9 h 36 min 0 850.0 850.0

1 Température minimale relevée entre 18:00 UTC la veille et 18:00 UTC le jour donné.

2 Température maximale relevée entre 06:00 UTC le jour donné et 06:00 UTC le lendemain.

3 Vent moyen de la journée basé sur les relevés horaires.

4 Ensoleillement en heures relevé entre 06:00 UTC la veille et 06:00 UTC le jour donné.

5 Précipitations totales tombées entre 06:00 UTC la jour donné et 06:00 UTC le lendemain.

Graphiques horaires